Terminal Aerodrome Forecast
Issued by NWS

Home | Current Version | Previous Version | Text Only | Print | Product List | Glossary On
Versions: 1 2 3 4 5 6 7 8 9 10 11 12 13 14 15 16 17 18 19 20 21 22 23 24 25 26 27 28 29 30 31 32 33 34 35 36 37 38 39 40 41 42
000
FTUS46 KPQR 021146
TAFONP
TAF
KONP 021146Z 0212/0312 VRB03KT 2SM BR OVC002
      TEMPO 0212/0215 1/2SM FG OVC001
     FM021800 33008KT 4SM BR OVC007
     FM022300 27005KT 3SM BR OVC005
      TEMPO 0223/0303 1SM -DZ OVC001
     FM030300 35008KT P6SM SCT005 BKN012 OVC025=

USA.gov is the U.S. government's official web portal to all federal, state and local government web resources and services.